Time;durP1;ratioP1;P1;durP2;ratioP2;P2;SDS_P1;SDS_P2;PMS_P1;PMS_P2;Temp;Humidity;BMP_temperature;BMP_pressure;BME280_temperature;BME280_humidity;BME280_pressure;Samples;Min_cycle;Max_cycle;Signal;HPM_P1;HPM_P2
2022/08/19 00:00:36;;;;;;;5.70;2.35;;;;;;;19.40;100.00;101063.47;6227832;28;20671;-76
2022/08/19 00:03:38;;;;;;;5.28;2.47;;;;;;;19.39;100.00;101056.44;6227253;28;20057;-76
2022/08/19 00:06:41;;;;;;;6.50;2.20;;;;;;;19.45;100.00;101063.91;6226603;28;20448;-77
2022/08/19 00:09:42;;;;;;;7.55;2.47;;;;;;;19.32;100.00;101068.59;6226930;28;20573;-76
2022/08/19 00:12:45;;;;;;;4.53;2.08;;;;;;;19.23;100.00;101071.06;6227680;28;20057;-76
2022/08/19 00:15:46;;;;;;;8.35;2.42;;;;;;;19.13;100.00;101064.84;6227324;28;20048;-76
2022/08/19 00:18:48;;;;;;;4.05;2.50;;;;;;;19.27;100.00;101064.50;6227151;28;20050;-76
2022/08/19 00:21:49;;;;;;;6.35;2.30;;;;;;;19.29;100.00;101064.38;6227220;28;20057;-76
2022/08/19 00:24:51;;;;;;;4.97;2.13;;;;;;;19.25;100.00;101062.94;6227212;28;20050;-76
2022/08/19 00:27:54;;;;;;;4.00;2.63;;;;;;;19.22;100.00;101065.88;6226401;28;20057;-76
2022/08/19 00:30:55;;;;;;;7.40;1.90;;;;;;;19.25;100.00;101084.25;6226826;28;20054;-77
2022/08/19 00:33:56;;;;;;;3.03;2.00;;;;;;;19.14;100.00;101071.84;6227834;28;20136;-76
2022/08/19 00:36:59;;;;;;;6.80;2.53;;;;;;;19.12;100.00;101059.63;6226718;28;20534;-77
2022/08/19 00:40:02;;;;;;;4.53;2.72;;;;;;;19.05;100.00;101063.78;6226421;28;20050;-77
2022/08/19 00:43:10;;;;;;;5.78;2.42;;;;;;;18.92;100.00;101066.63;6227488;28;20052;-77
2022/08/19 00:46:11;;;;;;;4.35;2.00;;;;;;;18.97;100.00;101059.94;6226305;28;20045;-76
2022/08/19 00:49:16;;;;;;;4.07;2.50;;;;;;;18.88;100.00;101063.38;6227233;28;20050;-76
2022/08/19 00:52:22;;;;;;;3.63;2.25;;;;;;;18.95;100.00;101061.91;6225732;28;20049;-76
2022/08/19 00:55:28;;;;;;;6.68;2.70;;;;;;;18.93;100.00;101065.66;6225441;28;20079;-76
2022/08/19 00:58:34;;;;;;;3.47;2.20;;;;;;;18.86;100.00;101057.34;6226154;28;20046;-75
2022/08/19 01:01:36;;;;;;;3.15;2.20;;;;;;;18.77;100.00;101038.63;6226125;28;20060;-77
2022/08/19 01:04:37;;;;;;;7.30;2.15;;;;;;;18.63;100.00;101037.91;6225609;28;20049;-76
2022/08/19 01:07:40;;;;;;;7.93;2.65;;;;;;;18.59;100.00;101031.16;6225834;28;20061;-76
2022/08/19 01:10:49;;;;;;;5.72;2.65;;;;;;;18.50;100.00;101035.41;6225884;28;20046;-76
2022/08/19 01:13:53;;;;;;;3.05;2.33;;;;;;;18.40;100.00;101029.16;6225934;28;20045;-77
2022/08/19 01:16:56;;;;;;;3.67;3.00;;;;;;;18.32;100.00;101026.25;6224938;28;20057;-76
2022/08/19 01:19:58;;;;;;;5.10;3.47;;;;;;;18.31;100.00;101024.59;6225108;28;20420;-76
2022/08/19 01:23:01;;;;;;;6.15;3.15;;;;;;;18.24;100.00;101018.06;6225170;28;20050;-77
2022/08/19 01:26:02;;;;;;;7.47;3.90;;;;;;;18.29;100.00;101015.88;6225214;28;20045;-76
2022/08/19 01:29:04;;;;;;;5.93;3.30;;;;;;;18.13;100.00;101008.31;6225202;28;20055;-77
2022/08/19 01:32:06;;;;;;;5.68;3.75;;;;;;;18.03;100.00;100996.69;6224947;28;20057;-76
2022/08/19 01:35:08;;;;;;;6.97;3.90;;;;;;;17.97;100.00;100987.41;6225384;28;20620;-77
2022/08/19 01:38:23;;;;;;;8.20;4.20;;;;;;;17.96;100.00;100983.06;6224886;28;20050;-76
2022/08/19 01:41:25;;;;;;;9.38;4.72;;;;;;;17.92;100.00;100978.09;6224196;28;20428;-76
2022/08/19 01:44:26;;;;;;;9.00;3.90;;;;;;;17.80;100.00;100960.47;6233033;28;20052;-76
2022/08/19 01:47:28;;;;;;;8.73;4.55;;;;;;;17.70;100.00;100960.34;6257378;28;20057;-76
2022/08/19 01:50:30;;;;;;;7.75;4.28;;;;;;;17.71;100.00;100967.34;6263127;28;20496;-76
2022/08/19 01:53:33;;;;;;;6.63;4.18;;;;;;;17.81;100.00;100976.31;6273119;28;20409;-75
2022/08/19 01:56:35;;;;;;;9.10;4.75;;;;;;;17.81;100.00;100976.31;6272839;28;20052;-77
2022/08/19 01:59:36;;;;;;;7.03;3.97;;;;;;;17.80;100.00;100971.09;6271717;28;20056;-76
2022/08/19 02:02:38;;;;;;;7.57;4.57;;;;;;;17.83;100.00;100966.41;6264969;28;20049;-76
2022/08/19 02:05:40;;;;;;;9.38;4.72;;;;;;;17.92;100.00;100973.63;6272817;28;20511;-77
2022/08/19 02:08:45;;;;;;;6.82;3.50;;;;;;;17.95;100.00;100962.75;6273079;28;20052;-76
2022/08/19 02:11:47;;;;;;;8.30;3.85;;;;;;;17.92;100.00;100947.03;6273192;28;20190;-76
2022/08/19 02:14:48;;;;;;;7.90;5.28;;;;;;;17.81;100.00;100959.53;6273263;28;20045;-76
2022/08/19 02:17:50;;;;;;;12.75;4.75;;;;;;;17.82;100.00;100970.03;6272716;28;20401;-76
2022/08/19 02:20:51;;;;;;;8.82;4.45;;;;;;;17.93;100.00;100969.16;6272352;28;20052;-76
2022/08/19 02:23:54;;;;;;;8.90;4.97;;;;;;;17.98;100.00;100964.31;6271989;28;20045;-76
2022/08/19 02:26:57;;;;;;;10.88;4.60;;;;;;;17.93;100.00;100966.50;6268071;28;20063;-76
2022/08/19 02:29:58;;;;;;;10.90;4.68;;;;;;;17.91;100.00;100966.63;6245480;28;20045;-76
2022/08/19 02:33:00;;;;;;;7.25;4.00;;;;;;;17.92;100.00;100957.69;6223734;28;20065;-76
2022/08/19 02:36:04;;;;;;;8.23;3.60;;;;;;;17.91;100.00;100955.16;6223516;28;20497;-76
2022/08/19 02:39:07;;;;;;;8.15;3.80;;;;;;;17.89;100.00;100962.38;6222927;28;20074;-76
2022/08/19 02:42:09;;;;;;;8.93;4.05;;;;;;;17.92;100.00;100960.34;6223020;28;20057;-77
2022/08/19 02:45:10;;;;;;;4.78;3.53;;;;;;;17.95;100.00;100957.44;6223171;28;20053;-76
2022/08/19 02:48:13;;;;;;;7.07;3.75;;;;;;;17.95;100.00;100961.91;6223204;28;20054;-76
2022/08/19 02:51:19;;;;;;;8.45;4.40;;;;;;;17.92;100.00;100954.19;6223262;28;20140;-76
2022/08/19 02:54:22;;;;;;;5.95;3.88;;;;;;;17.90;100.00;100961.44;6222683;28;20042;-77
2022/08/19 02:57:24;;;;;;;8.63;4.05;;;;;;;17.91;100.00;100965.78;6223304;28;20508;-76
2022/08/19 03:00:26;;;;;;;11.90;4.13;;;;;;;17.92;100.00;100970.13;6223058;28;20494;-76
2022/08/19 03:03:27;;;;;;;7.45;3.72;;;;;;;17.90;100.00;100978.25;6228353;28;20513;-76
2022/08/19 03:06:29;;;;;;;9.88;4.07;;;;;;;17.85;100.00;100974.25;6227502;28;20120;-77
2022/08/19 03:09:32;;;;;;;9.35;4.53;;;;;;;17.85;100.00;100983.09;6227942;28;20049;-77
2022/08/19 03:12:36;;;;;;;6.32;3.47;;;;;;;17.82;100.00;100983.31;6227499;28;20054;-76
2022/08/19 03:15:40;;;;;;;7.50;4.00;;;;;;;17.83;100.00;100979.69;6227653;28;20045;-76
2022/08/19 03:18:42;;;;;;;6.70;3.65;;;;;;;17.84;100.00;100988.50;6227583;28;20490;-76
2022/08/19 03:21:45;;;;;;;11.35;4.68;;;;;;;17.77;100.00;100988.16;6227064;28;20053;-76
2022/08/19 03:24:48;;;;;;;5.68;3.33;;;;;;;17.75;100.00;100993.59;6227393;28;20054;-76
2022/08/19 03:27:49;;;;;;;7.28;3.75;;;;;;;17.75;100.00;100985.59;6227389;28;20437;-76
2022/08/19 03:30:58;;;;;;;6.05;3.83;;;;;;;17.67;100.00;100985.38;6227395;28;20052;-76
2022/08/19 03:33:59;;;;;;;6.43;4.03;;;;;;;17.64;100.00;100988.25;6227030;28;20421;-76
2022/08/19 03:37:06;;;;;;;9.57;4.43;;;;;;;17.64;100.00;100998.88;6227443;28;20061;-76
2022/08/19 03:40:10;;;;;;;10.98;5.18;;;;;;;17.62;100.00;100997.31;6226933;28;20061;-76
2022/08/19 03:43:11;;;;;;;9.60;4.93;;;;;;;17.52;100.00;101002.50;6227261;28;20529;-76
2022/08/19 03:46:15;;;;;;;7.65;3.55;;;;;;;17.52;100.00;100994.53;6226725;28;20049;-76
2022/08/19 03:49:18;;;;;;;8.50;4.30;;;;;;;17.52;100.00;100986.56;6227199;28;20065;-76
2022/08/19 03:52:19;;;;;;;9.20;4.55;;;;;;;17.40;100.00;100983.06;6226686;28;20481;-76
2022/08/19 03:55:22;;;;;;;6.07;3.63;;;;;;;17.38;100.00;100989.44;6227069;28;20414;-76
2022/08/19 03:58:23;;;;;;;8.35;5.30;;;;;;;17.24;100.00;100988.72;6226793;28;20053;-77
2022/08/19 04:01:27;;;;;;;10.63;4.38;;;;;;;17.23;100.00;100997.66;6226642;28;20061;-77
2022/08/19 04:04:29;;;;;;;12.15;5.03;;;;;;;17.28;100.00;101001.75;6226758;28;20049;-77
2022/08/19 04:07:31;;;;;;;10.25;4.95;;;;;;;17.35;100.00;100998.53;6226394;28;20045;-76
2022/08/19 04:10:36;;;;;;;8.73;4.65;;;;;;;17.38;100.00;100998.25;6226230;28;20049;-76
2022/08/19 04:13:38;;;;;;;8.55;4.93;;;;;;;17.42;100.00;100998.88;6225596;28;20130;-76
2022/08/19 04:16:40;;;;;;;5.68;3.85;;;;;;;17.37;100.00;100993.91;6226107;28;20417;-76
2022/08/19 04:19:42;;;;;;;7.93;4.47;;;;;;;17.41;100.00;101002.50;6226006;28;20058;-76
2022/08/19 04:22:44;;;;;;;10.38;4.55;;;;;;;17.41;100.00;101003.34;6226136;28;20092;-76
2022/08/19 04:25:46;;;;;;;7.40;4.50;;;;;;;17.28;100.00;100997.28;6226228;28;20057;-76
2022/08/19 04:28:48;;;;;;;11.20;4.80;;;;;;;17.18;100.00;100991.84;6226068;28;20402;-76
2022/08/19 04:31:50;;;;;;;11.05;4.80;;;;;;;17.06;100.00;100991.94;6225941;28;20141;-76
2022/08/19 04:34:52;;;;;;;10.23;4.93;;;;;;;17.06;100.00;100991.94;6226032;28;20056;-75
2022/08/19 04:37:53;;;;;;;7.63;4.43;;;;;;;16.98;100.00;100988.06;6225889;28;20498;-77
2022/08/19 04:44:17;;;;;;;9.50;5.35;;;;;;;16.95;100.00;100993.63;6225256;28;20042;-75
2022/08/19 04:47:19;;;;;;;12.32;5.13;;;;;;;16.90;100.00;100985.16;6225867;28;20050;-76
2022/08/19 04:50:22;;;;;;;7.90;5.20;;;;;;;16.92;100.00;100985.03;6225550;28;20050;-77
2022/08/19 04:53:24;;;;;;;9.45;4.65;;;;;;;16.89;100.00;100991.41;6225679;28;20512;-75
2022/08/19 04:56:27;;;;;;;7.22;4.20;;;;;;;16.97;100.00;100986.38;6225742;28;20108;-74
2022/08/19 04:59:28;;;;;;;9.20;4.38;;;;;;;17.01;100.00;100991.44;6224646;28;20051;-76
2022/08/19 05:02:29;;;;;;;9.00;4.68;;;;;;;16.93;100.00;100994.69;6224900;28;20422;-77
2022/08/19 05:05:32;;;;;;;11.15;4.75;;;;;;;17.01;100.00;100991.44;6224567;28;20053;-76
2022/08/19 05:08:35;;;;;;;8.45;5.05;;;;;;;16.73;100.00;100983.78;6229481;28;20052;-76
2022/08/19 05:11:39;;;;;;;9.98;4.95;;;;;;;16.81;100.00;101000.94;6243286;28;20063;-76
2022/08/19 05:14:40;;;;;;;7.53;4.35;;;;;;;16.86;100.00;100996.97;6249428;28;20046;-76
2022/08/19 05:22:31;;;;;;;9.07;5.13;;;;;;;16.95;100.00;101006.06;6249311;28;20050;-76
2022/08/19 05:24:26;;;;;;;7.22;4.32;;;;;;;17.11;100.00;101011.88;6250235;28;20044;-77
2022/08/19 05:27:29;;;;;;;10.75;4.07;;;;;;;17.10;100.00;101010.19;6252729;28;20048;-76
2022/08/19 05:30:30;;;;;;;7.53;4.03;;;;;;;17.12;100.00;101012.72;6250210;28;20057;-76
2022/08/19 05:33:32;;;;;;;10.68;4.30;;;;;;;17.12;100.00;101012.72;6248628;28;20041;-77
2022/08/19 05:36:38;;;;;;;10.35;5.07;;;;;;;17.09;100.00;101013.81;6248859;28;20045;-77
2022/08/19 05:39:40;;;;;;;8.43;4.68;;;;;;;17.10;100.00;101010.19;6248741;28;20056;-76
2022/08/19 05:42:42;;;;;;;12.10;5.68;;;;;;;17.11;100.00;101006.56;6248859;28;20107;-76
2022/08/19 05:45:44;;;;;;;8.70;4.53;;;;;;;17.10;100.00;101009.34;6248810;28;20045;-77
2022/08/19 05:48:46;;;;;;;9.73;4.75;;;;;;;17.04;100.00;101004.50;6248825;28;20054;-77
2022/08/19 05:51:48;;;;;;;8.07;3.95;;;;;;;17.19;100.00;101011.28;6247865;28;20424;-76
2022/08/19 05:54:50;;;;;;;8.50;3.95;;;;;;;17.20;100.00;101024.44;6247538;28;20064;-77
2022/08/19 05:57:53;;;;;;;7.50;4.63;;;;;;;17.22;100.00;101022.53;6258956;28;20504;-76
2022/08/19 06:00:54;;;;;;;8.90;4.32;;;;;;;17.31;100.00;101020.13;6256179;28;20056;-76
2022/08/19 06:03:56;;;;;;;8.77;5.18;;;;;;;17.39;100.00;101015.88;6260237;28;20049;-77
2022/08/19 06:06:58;;;;;;;12.98;5.55;;;;;;;17.45;100.00;101019.91;6246162;28;20493;-76
2022/08/19 06:09:59;;;;;;;10.80;4.88;;;;;;;17.51;100.00;101016.75;6247603;28;20061;-76
2022/08/19 06:13:02;;;;;;;6.50;4.38;;;;;;;17.52;100.00;101012.28;6247639;28;20049;-76
2022/08/19 06:16:04;;;;;;;12.70;5.03;;;;;;;17.51;100.00;101014.09;6247106;28;20050;-76
2022/08/19 06:19:08;;;;;;;7.43;5.03;;;;;;;17.58;100.00;101023.31;6246920;28;20417;-76
2022/08/19 06:22:10;;;;;;;9.00;4.88;;;;;;;17.47;100.00;101031.25;6246620;28;20071;-76
2022/08/19 06:25:12;;;;;;;10.68;5.45;;;;;;;17.57;100.00;101026.91;6246391;28;20046;-76
2022/08/19 06:28:15;;;;;;;10.68;5.15;;;;;;;17.65;100.00;101031.63;6247350;28;20056;-76
2022/08/19 06:31:18;;;;;;;6.72;4.28;;;;;;;17.64;100.00;101028.13;6248134;28;20052;-76
2022/08/19 06:34:20;;;;;;;7.60;4.63;;;;;;;17.70;100.00;101026.78;6247224;28;20390;-76
2022/08/19 06:37:22;;;;;;;7.75;4.38;;;;;;;17.62;100.00;101013.25;6247650;28;20054;-77
2022/08/19 06:40:23;;;;;;;6.53;4.03;;;;;;;17.68;100.00;101015.44;6247353;28;20050;-76
2022/08/19 06:43:26;;;;;;;9.23;4.10;;;;;;;17.70;100.00;101017.00;6247497;28;20501;-77
2022/08/19 06:46:28;;;;;;;6.70;3.45;;;;;;;17.73;100.00;101019.47;6247465;28;20053;-76
2022/08/19 06:49:30;;;;;;;9.40;4.45;;;;;;;17.69;100.00;101022.44;6247239;28;20060;-76
2022/08/19 06:52:33;;;;;;;6.55;3.70;;;;;;;17.77;100.00;101030.69;6246866;28;20132;-77
2022/08/19 06:55:34;;;;;;;9.20;3.10;;;;;;;17.89;100.00;101032.38;6247517;28;20049;-75
2022/08/19 06:58:38;;;;;;;4.88;2.97;;;;;;;17.97;100.00;101045.06;6246614;28;20056;-76
2022/08/19 07:01:41;;;;;;;4.28;2.97;;;;;;;18.02;100.00;101050.00;6246620;28;20056;-76
2022/08/19 07:04:42;;;;;;;4.22;2.50;;;;;;;18.10;100.00;101060.88;6247237;28;20056;-76
2022/08/19 07:07:44;;;;;;;4.00;2.70;;;;;;;18.12;100.00;101057.16;6247000;28;20052;-76
2022/08/19 07:10:46;;;;;;;6.70;2.70;;;;;;;18.20;100.00;101059.19;6246762;28;20507;-76
2022/08/19 07:13:49;;;;;;;5.85;3.38;;;;;;;18.28;100.00;101059.41;6246783;28;20045;-76
2022/08/19 07:16:52;;;;;;;8.90;3.13;;;;;;;18.30;100.00;101056.63;6246379;28;20077;-77
2022/08/19 07:19:54;;;;;;;10.68;3.65;;;;;;;18.46;100.00;101065.91;6246512;28;20046;-75
2022/08/19 07:22:56;;;;;;;6.85;3.20;;;;;;;18.39;100.00;101074.50;6247710;28;20050;-76
2022/08/19 07:25:57;;;;;;;4.30;3.00;;;;;;;18.35;100.00;101079.25;6249997;28;20428;-77
2022/08/19 07:29:01;;;;;;;3.58;2.78;;;;;;;18.36;100.00;101086.25;6247876;28;20057;-77
2022/08/19 07:32:04;;;;;;;8.77;2.65;;;;;;;18.27;100.00;101087.00;6244064;28;20041;-76
2022/08/19 07:35:06;;;;;;;3.40;2.28;;;;;;;18.34;100.00;101090.84;6250552;28;20059;-75
2022/08/19 07:38:07;;;;;;;3.72;2.03;;;;;;;18.48;100.00;101097.69;6249953;28;20184;-77
2022/08/19 07:41:11;;;;;;;3.28;2.33;;;;;;;18.45;100.00;101109.47;6258088;28;20053;-77
2022/08/19 07:44:15;;;;;;;5.28;2.53;;;;;;;18.51;100.00;101095.66;6246761;28;20042;-77
2022/08/19 07:47:17;;;;;;;5.05;3.00;;;;;;;18.56;100.00;101100.59;6247049;28;20053;-76
2022/08/19 07:50:20;;;;;;;5.65;2.60;;;;;;;18.55;100.00;101101.56;6236722;28;20054;-76
2022/08/19 07:53:22;;;;;;;4.78;2.70;;;;;;;18.68;100.00;101099.59;6227247;28;20058;-76
2022/08/19 07:56:24;;;;;;;5.38;2.85;;;;;;;18.65;100.00;101107.84;6226742;28;20053;-76
2022/08/19 07:59:28;;;;;;;6.30;3.22;;;;;;;18.66;100.00;101114.00;6227308;28;20054;-77
2022/08/19 08:02:29;;;;;;;5.28;3.10;;;;;;;18.70;100.00;101126.13;6226459;28;20049;-76
2022/08/19 08:12:11;;;;;;;7.50;3.80;;;;;;;18.67;100.00;101127.22;6225821;28;20057;-76
2022/08/19 08:15:18;;;;;;;5.93;3.33;;;;;;;18.62;100.00;101125.88;6225515;28;20104;-76
2022/08/19 08:18:20;;;;;;;4.43;3.10;;;;;;;18.66;100.00;101129.97;6225300;28;20072;-75
2022/08/19 08:21:22;;;;;;;5.38;3.33;;;;;;;18.68;100.00;101138.69;6225660;28;20065;-77
2022/08/19 08:24:24;;;;;;;6.20;3.13;;;;;;;18.74;100.00;101144.38;6225408;28;20049;-77
2022/08/19 08:27:28;;;;;;;5.40;3.42;;;;;;;18.82;100.00;101149.09;6225708;28;20053;-77
2022/08/19 08:30:35;;;;;;;9.13;3.42;;;;;;;18.87;100.00;101140.72;6248034;28;20529;-77
2022/08/19 08:33:36;;;;;;;4.97;3.20;;;;;;;18.98;100.00;101146.84;6263711;28;20408;-77
2022/08/19 08:36:41;;;;;;;3.45;2.20;;;;;;;19.08;100.00;101149.63;6274165;28;20456;-76
2022/08/19 08:39:42;;;;;;;4.05;2.60;;;;;;;19.11;100.00;101143.19;6274657;28;20060;-79
2022/08/19 08:42:52;;;;;;;4.57;2.67;;;;;;;19.12;100.00;101143.06;6226029;28;20058;-77
2022/08/19 08:46:05;;;;;;;7.25;2.90;;;;;;;19.17;99.87;101142.69;6224644;28;20045;-77
2022/08/19 08:49:27;;;;;;;4.13;2.40;;;;;;;19.05;98.79;101141.88;6225046;28;20054;-76
2022/08/19 08:52:35;;;;;;;4.10;2.63;;;;;;;19.08;98.62;101136.31;6224872;28;20053;-76
2022/08/19 08:55:36;;;;;;;2.88;2.20;;;;;;;19.12;99.79;101134.22;6224511;28;20088;-76
2022/08/19 08:58:48;;;;;;;4.43;2.63;;;;;;;19.20;97.35;101132.59;6224731;28;20501;-75
2022/08/19 09:01:51;;;;;;;2.70;1.85;;;;;;;19.20;97.91;101123.75;6224118;28;20050;-76
2022/08/19 09:04:54;;;;;;;5.65;2.70;;;;;;;19.13;96.50;101126.13;6224789;28;20058;-76
2022/08/19 09:08:02;;;;;;;4.50;2.72;;;;;;;19.19;96.83;101119.41;6224184;28;20064;-76
2022/08/19 09:11:08;;;;;;;5.78;2.17;;;;;;;19.29;96.22;101120.34;6224262;28;20042;-76
2022/08/19 09:14:20;;;;;;;4.40;2.25;;;;;;;19.34;96.22;101119.94;6224298;28;20413;-77
2022/08/19 09:17:30;;;;;;;3.28;2.55;;;;;;;19.35;95.09;101132.28;6227705;28;20045;-79
2022/08/19 09:20:31;;;;;;;4.63;1.98;;;;;;;19.35;96.17;101132.28;6252280;28;20056;-75
2022/08/19 09:23:33;;;;;;;5.35;2.67;;;;;;;19.29;94.18;101132.81;6253781;28;20409;-77
2022/08/19 09:26:34;;;;;;;3.45;2.22;;;;;;;19.26;93.41;101120.59;6254369;28;20046;-75
2022/08/19 09:29:36;;;;;;;4.55;2.47;;;;;;;19.33;92.94;101131.59;6272630;28;20041;-76
2022/08/19 09:32:41;;;;;;;5.60;2.05;;;;;;;19.33;90.83;101136.91;6272998;28;20045;-76
2022/08/19 09:35:44;;;;;;;3.03;1.98;;;;;;;19.37;90.67;101120.53;6273592;28;20497;-76
2022/08/19 09:38:46;;;;;;;5.28;2.90;;;;;;;19.43;89.63;101135.16;6273303;28;20466;-76
2022/08/19 09:41:49;;;;;;;3.63;2.13;;;;;;;19.48;88.72;101127.63;6235998;28;20065;-74
2022/08/19 09:44:50;;;;;;;3.85;1.80;;;;;;;19.49;90.08;101127.50;6247363;28;20041;-76
2022/08/19 09:47:54;;;;;;;3.22;1.42;;;;;;;19.58;88.99;101117.03;6244727;28;20060;-76
2022/08/19 09:51:02;;;;;;;2.38;1.60;;;;;;;19.67;87.02;101101.13;6256569;28;20041;-77
2022/08/19 09:54:04;;;;;;;4.28;2.40;;;;;;;19.86;86.73;101111.03;6248805;28;20049;-76
2022/08/19 09:57:06;;;;;;;3.90;2.17;;;;;;;19.90;86.83;101112.47;6247848;28;20050;-76
2022/08/19 10:00:10;;;;;;;4.53;1.70;;;;;;;19.99;84.92;101117.00;6247645;28;20485;-76
2022/08/19 10:03:12;;;;;;;2.38;1.55;;;;;;;20.12;81.95;101115.91;6247438;28;20421;-76
2022/08/19 10:06:14;;;;;;;2.80;1.95;;;;;;;20.17;80.08;101117.22;6247015;28;20053;-75
2022/08/19 10:09:17;;;;;;;3.75;1.98;;;;;;;20.18;77.92;101126.91;6241212;28;20049;-76
2022/08/19 10:12:18;;;;;;;4.10;1.80;;;;;;;20.24;78.38;101115.69;6221821;28;20049;-76
2022/08/19 10:15:20;;;;;;;2.42;1.55;;;;;;;20.34;78.99;101118.38;6222845;28;20042;-76
2022/08/19 10:18:25;;;;;;;5.05;2.00;;;;;;;20.50;79.15;101104.56;6222641;28;20050;-77
2022/08/19 10:21:28;;;;;;;4.38;1.80;;;;;;;20.61;78.38;101109.75;6222784;28;20050;-76
2022/08/19 10:24:30;;;;;;;2.45;1.88;;;;;;;20.60;77.99;101110.75;6223101;28;20046;-76
2022/08/19 10:27:31;;;;;;;7.43;1.73;;;;;;;20.72;76.05;101114.16;6222654;28;20305;-76
2022/08/19 10:30:33;;;;;;;2.35;1.50;;;;;;;20.70;76.49;101114.28;6222665;28;20046;-75
2022/08/19 10:33:37;;;;;;;2.53;1.88;;;;;;;20.69;77.04;101109.94;6222430;28;20050;-76
2022/08/19 10:36:38;;;;;;;2.70;1.80;;;;;;;20.72;76.61;101107.00;6222470;28;20046;-76
2022/08/19 10:39:40;;;;;;;2.42;1.02;;;;;;;20.86;78.40;101113.75;6234572;28;20788;-75
2022/08/19 10:42:41;;;;;;;1.58;1.23;;;;;;;21.15;75.02;101097.69;6248793;28;20072;-75
2022/08/19 10:45:42;;;;;;;3.95;1.58;;;;;;;21.10;74.51;101099.13;6255452;28;20046;-77
2022/08/19 10:48:46;;;;;;;1.55;1.30;;;;;;;21.15;75.29;101089.69;6239923;28;20076;-76
2022/08/19 10:58:26;;;;;;;1.83;1.15;;;;;;;21.41;75.29;101070.41;6244721;28;20080;-77
2022/08/19 11:01:29;;;;;;;1.33;1.00;;;;;;;21.65;76.18;101069.91;6252973;28;20412;-77
2022/08/19 11:04:33;;;;;;;1.73;1.20;;;;;;;21.80;74.06;101063.09;6241518;28;20068;-75
2022/08/19 11:07:34;;;;;;;1.58;0.90;;;;;;;21.89;72.66;101058.69;6222192;28;20056;-77
2022/08/19 11:10:36;;;;;;;4.78;1.50;;;;;;;21.98;73.60;101042.63;6222081;28;20054;-77
2022/08/19 11:13:40;;;;;;;3.70;1.00;;;;;;;22.22;68.86;101042.09;6222583;28;20054;-76
2022/08/19 11:16:42;;;;;;;1.13;0.95;;;;;;;22.37;67.85;101052.28;6223285;28;20045;-76
2022/08/19 11:19:48;;;;;;;1.10;1.00;;;;;;;22.54;65.41;101041.59;6247608;28;20053;-76
2022/08/19 11:22:52;;;;;;;1.77;1.05;;;;;;;22.63;64.31;101033.63;6249417;28;20053;-76
2022/08/19 11:25:53;;;;;;;0.80;0.70;;;;;;;22.73;62.08;101029.88;6260320;28;20045;-77
2022/08/19 11:28:55;;;;;;;1.20;1.00;;;;;;;23.11;59.82;101021.66;6262623;28;20508;-76
2022/08/19 11:31:56;;;;;;;1.50;0.80;;;;;;;23.17;59.65;101021.88;6269744;28;20518;-77
2022/08/19 11:34:59;;;;;;;1.20;1.00;;;;;;;23.46;58.32;101026.09;6247900;28;20053;-76
2022/08/19 11:38:02;;;;;;;0.95;0.85;;;;;;;23.62;56.66;101012.78;6270891;28;20492;-76
2022/08/19 11:41:07;;;;;;;0.70;0.70;;;;;;;23.78;58.00;101017.38;6265594;28;20049;-77
2022/08/19 11:44:08;;;;;;;1.08;0.80;;;;;;;24.09;57.19;101017.69;6250939;28;20056;-76
2022/08/19 11:47:10;;;;;;;1.42;1.00;;;;;;;24.33;56.32;101022.25;6250930;28;20136;-77
2022/08/19 11:50:12;;;;;;;1.58;1.20;;;;;;;24.52;53.93;101013.91;6243111;28;20046;-78
2022/08/19 11:53:14;;;;;;;1.38;0.93;;;;;;;24.62;53.94;101013.78;6241660;28;20056;-76
2022/08/19 11:56:15;;;;;;;1.88;0.95;;;;;;;24.87;52.44;101003.03;6251638;28;20041;-77
2022/08/19 11:59:17;;;;;;;5.63;1.38;;;;;;;25.19;52.91;101010.25;6252065;28;20053;-77
2022/08/19 12:02:18;;;;;;;1.33;1.05;;;;;;;25.38;51.98;101009.88;6253318;28;20045;-77
2022/08/19 12:05:21;;;;;;;2.28;1.10;;;;;;;25.67;52.17;101008.47;6246979;28;20079;-76
2022/08/19 12:08:23;;;;;;;1.20;0.82;;;;;;;25.89;51.08;101002.34;6260110;28;20049;-76
2022/08/19 12:11:25;;;;;;;1.85;0.85;;;;;;;26.04;48.89;100997.03;6251242;28;20045;-77
2022/08/19 12:14:27;;;;;;;0.90;0.80;;;;;;;26.25;47.77;100994.56;6252197;28;20045;-76
2022/08/19 12:17:30;;;;;;;0.75;0.50;;;;;;;26.46;48.44;100990.41;6249830;28;20132;-76
2022/08/19 12:20:35;;;;;;;2.17;0.57;;;;;;;26.68;45.59;100996.81;6248411;28;20053;-76
2022/08/19 12:23:37;;;;;;;0.52;0.50;;;;;;;26.36;44.62;100993.31;6266220;28;20052;-76
2022/08/19 12:26:38;;;;;;;0.65;0.60;;;;;;;26.50;45.58;100994.41;6274646;28;20078;-77
2022/08/19 12:29:41;;;;;;;2.22;0.75;;;;;;;26.70;44.47;100994.75;6274393;28;20565;-77
2022/08/19 12:32:42;;;;;;;1.55;0.60;;;;;;;27.04;43.87;100994.28;6274329;28;20515;-76
2022/08/19 12:35:46;;;;;;;0.90;0.70;;;;;;;27.31;43.25;100992.88;6273793;28;20048;-76
2022/08/19 12:38:47;;;;;;;0.88;0.73;;;;;;;27.27;40.84;100983.47;6274921;28;20048;-76
2022/08/19 12:41:49;;;;;;;0.50;0.50;;;;;;;27.44;41.77;100990.38;6274777;28;20045;-76
2022/08/19 12:44:51;;;;;;;0.57;0.50;;;;;;;27.64;40.05;100984.38;6273822;28;20064;-77
2022/08/19 12:47:53;;;;;;;0.60;0.60;;;;;;;27.31;39.90;100972.13;6274901;28;20096;-77
2022/08/19 12:50:56;;;;;;;2.88;0.63;;;;;;;27.65;40.32;100978.78;6274409;28;20526;-77
2022/08/19 12:53:57;;;;;;;1.83;0.63;;;;;;;27.70;40.28;100965.56;6274265;28;20183;-75
2022/08/19 12:56:59;;;;;;;0.40;0.40;;;;;;;28.04;39.25;100964.13;6273647;28;20045;-77
2022/08/19 13:00:08;;;;;;;3.40;0.60;;;;;;;27.76;37.90;100962.16;6274844;28;20504;-77
2022/08/19 13:03:09;;;;;;;1.23;0.70;;;;;;;27.56;39.19;100961.00;6274657;28;20061;-76
2022/08/19 13:06:12;;;;;;;1.25;0.55;;;;;;;27.78;39.96;100959.25;6273258;28;20058;-76
2022/08/19 13:09:14;;;;;;;0.80;0.60;;;;;;;28.13;39.58;100959.44;6273679;28;20060;-76
2022/08/19 13:12:15;;;;;;;2.13;0.60;;;;;;;28.33;38.35;100955.91;6273615;28;20417;-76
2022/08/19 13:15:19;;;;;;;3.13;1.08;;;;;;;28.61;38.94;100957.03;6273694;28;20045;-76
2022/08/19 13:18:21;;;;;;;0.40;0.40;;;;;;;28.40;35.85;100956.03;6273268;28;20053;-77
2022/08/19 13:21:27;;;;;;;1.08;0.35;;;;;;;28.51;35.89;100962.75;6273477;28;20045;-76
2022/08/19 13:24:28;;;;;;;0.35;0.35;;;;;;;28.90;34.63;100956.03;6257408;28;20095;-75
2022/08/19 13:27:30;;;;;;;0.70;0.60;;;;;;;28.54;34.58;100960.50;6263887;28;20037;-77
2022/08/19 13:33:50;;;;;;;0.77;0.30;;;;;;;28.70;35.07;100961.25;6240733;28;20541;-77
2022/08/19 13:36:54;;;;;;;0.35;0.32;;;;;;;28.47;35.44;100956.06;6250768;28;20052;-77
2022/08/19 13:39:55;;;;;;;1.23;0.40;;;;;;;28.72;35.43;100970.03;6240688;28;20049;-77
2022/08/19 13:42:57;;;;;;;0.50;0.40;;;;;;;28.70;34.73;100951.28;6241304;28;20056;-77
2022/08/19 13:45:58;;;;;;;1.05;0.65;;;;;;;28.73;34.78;100945.47;6237735;28;20049;-77
2022/08/19 13:48:59;;;;;;;0.50;0.45;;;;;;;28.79;34.99;100939.28;6246056;28;20080;-77
2022/08/19 13:52:03;;;;;;;0.30;0.30;;;;;;;29.14;33.86;100941.22;6236405;28;20052;-77
2022/08/19 13:55:05;;;;;;;0.63;0.52;;;;;;;29.23;34.21;100934.59;6242847;28;20652;-77
2022/08/19 13:58:06;;;;;;;0.30;0.30;;;;;;;29.23;35.19;100932.72;6246839;28;20045;-77
2022/08/19 14:01:08;;;;;;;0.30;0.30;;;;;;;29.30;34.63;100927.38;6238333;28;20049;-77
2022/08/19 14:04:10;;;;;;;0.43;0.40;;;;;;;29.40;33.90;100932.41;6255928;28;20053;-77
2022/08/19 14:07:12;;;;;;;0.88;0.40;;;;;;;29.05;32.00;100933.25;6248362;28;20057;-77
2022/08/19 14:10:15;;;;;;;0.38;0.38;;;;;;;28.63;32.33;100923.34;6250366;28;20504;-77
2022/08/19 14:13:20;;;;;;;0.20;0.20;;;;;;;28.52;32.14;100940.09;6272803;28;20049;-77
2022/08/19 14:16:22;;;;;;;0.50;0.50;;;;;;;29.13;31.55;100928.72;6272703;28;20049;-76
2022/08/19 14:19:23;;;;;;;0.40;0.40;;;;;;;29.11;31.70;100933.47;6263201;28;20099;-76
2022/08/19 14:22:26;;;;;;;0.38;0.30;;;;;;;29.20;31.62;100927.72;6270221;28;20416;-77
2022/08/19 14:25:30;;;;;;;0.40;0.40;;;;;;;29.61;32.02;100921.47;6272062;28;20052;-76